Time;durP1;ratioP1;P1;durP2;ratioP2;P2;SDS_P1;SDS_P2;PMS_P1;PMS_P2;Temp;Humidity;BMP_temperature;BMP_pressure;BME280_temperature;BME280_humidity;BME280_pressure;Samples;Min_cycle;Max_cycle;Signal;HPM_P1;HPM_P2
2023/12/02 00:01:13;;;;;;;23.83;15.27;;;;;;;0.19;100.00;100150.09;4832812;29;20037;-96
2023/12/02 00:03:38;;;;;;;34.88;19.02;;;;;;;0.14;100.00;100142.53;4874479;29;20040;-96
2023/12/02 00:06:04;;;;;;;35.03;19.13;;;;;;;0.10;100.00;100136.66;4830361;29;20036;-96
2023/12/02 00:08:30;;;;;;;40.42;19.67;;;;;;;0.08;100.00;100145.47;4846268;29;20038;-96
2023/12/02 00:10:56;;;;;;;34.67;18.10;;;;;;;0.03;100.00;100143.13;4836906;29;20559;-96
2023/12/02 00:13:22;;;;;;;39.60;20.02;;;;;;;0.07;100.00;100143.78;4863816;29;20052;-96
2023/12/02 00:15:47;;;;;;;29.70;17.13;;;;;;;0.07;100.00;100136.84;4867427;29;20046;-95
2023/12/02 00:18:13;;;;;;;31.83;17.48;;;;;;;0.07;100.00;100144.63;4875815;29;20105;-96
2023/12/02 00:20:39;;;;;;;28.17;17.00;;;;;;;0.06;100.00;100142.13;4883593;29;20051;-96
2023/12/02 00:23:05;;;;;;;27.25;16.65;;;;;;;0.02;100.00;100132.84;4886701;29;20051;-95
2023/12/02 00:25:31;;;;;;;27.63;16.17;;;;;;;0.06;100.00;100144.72;4885589;29;20048;-96
2023/12/02 00:27:56;;;;;;;23.40;14.60;;;;;;;-0.02;100.00;100135.56;4879731;29;20483;-95
2023/12/02 00:30:22;;;;;;;23.55;15.02;;;;;;;-0.04;100.00;100139.19;4873276;29;20040;-96
2023/12/02 00:32:48;;;;;;;26.02;16.20;;;;;;;-0.08;100.00;100138.50;4880229;29;20040;-94
2023/12/02 00:35:14;;;;;;;27.38;17.02;;;;;;;-0.17;100.00;100132.06;4874188;29;20369;-94
2023/12/02 00:37:40;;;;;;;27.33;16.42;;;;;;;-0.19;100.00;100133.06;4864845;29;20041;-96
2023/12/02 00:40:06;;;;;;;26.83;16.00;;;;;;;-0.20;100.00;100133.97;4874410;29;20048;-96
2023/12/02 00:42:32;;;;;;;25.52;16.15;;;;;;;-0.25;100.00;100131.63;4888468;29;20055;-96
2023/12/02 00:44:58;;;;;;;29.98;17.58;;;;;;;-0.23;100.00;100136.72;4859266;29;20033;-96
2023/12/02 00:47:23;;;;;;;31.70;17.55;;;;;;;-0.28;100.00;100137.81;4864670;29;20060;-96
2023/12/02 00:49:49;;;;;;;37.25;19.10;;;;;;;-0.33;100.00;100128.59;4878762;29;20112;-96
2023/12/02 00:52:18;;;;;;;39.15;16.98;;;;;;;-0.40;100.00;100123.72;4868939;29;20037;-96
2023/12/02 00:54:44;;;;;;;30.48;16.88;;;;;;;-0.44;100.00;100122.22;4889889;29;20399;-96
2023/12/02 00:57:12;;;;;;;28.10;16.92;;;;;;;-0.40;100.00;100121.13;4865314;29;20115;-96
2023/12/02 00:59:38;;;;;;;32.13;17.90;;;;;;;-0.46;100.00;100120.63;4872699;29;20041;-96
2023/12/02 01:02:06;;;;;;;31.05;17.48;;;;;;;-0.43;100.00;100116.09;4860247;29;20032;-96
2023/12/02 01:04:32;;;;;;;36.90;19.15;;;;;;;-0.46;100.00;100113.66;4873981;29;20057;-95
2023/12/02 01:06:58;;;;;;;38.58;18.50;;;;;;;-0.59;100.00;100104.84;4880631;29;20031;-96
2023/12/02 01:09:24;;;;;;;51.15;17.88;;;;;;;-0.59;100.00;100110.03;4891287;29;20037;-96
2023/12/02 01:11:50;;;;;;;133.48;20.83;;;;;;;-0.66;100.00;100107.78;4876711;29;20049;-96
2023/12/02 01:14:15;;;;;;;48.75;21.25;;;;;;;-0.66;100.00;100112.97;4857209;29;20064;-96
2023/12/02 01:16:41;;;;;;;41.25;21.13;;;;;;;-0.68;100.00;100107.00;4871617;29;20045;-95
2023/12/02 01:19:07;;;;;;;31.98;17.75;;;;;;;-0.69;100.00;100110.53;4892455;29;20029;-96
2023/12/02 01:21:33;;;;;;;34.22;17.83;;;;;;;-0.71;100.00;100111.50;4861798;29;20044;-96
2023/12/02 01:23:59;;;;;;;29.55;17.17;;;;;;;-0.70;100.00;100115.81;4848355;29;20051;-96
2023/12/02 01:26:24;;;;;;;27.27;16.30;;;;;;;-0.67;100.00;100116.47;4863912;29;20045;-96
2023/12/02 01:28:50;;;;;;;31.30;16.90;;;;;;;-0.67;100.00;100116.47;4879537;29;20032;-95
2023/12/02 01:31:16;;;;;;;34.22;18.65;;;;;;;-0.68;100.00;100109.59;4863878;29;20060;-95
2023/12/02 01:33:42;;;;;;;34.58;18.17;;;;;;;-0.75;100.00;100109.06;4859920;29;20048;-95
2023/12/02 01:36:12;;;;;;;35.20;17.75;;;;;;;-0.69;100.00;100107.09;4867989;29;20037;-95
2023/12/02 01:38:38;;;;;;;35.88;18.35;;;;;;;-0.76;100.00;100106.56;4878113;29;20047;-95
2023/12/02 01:41:04;;;;;;;33.25;16.73;;;;;;;-0.79;100.00;100109.31;4876920;29;20052;-95
2023/12/02 01:43:30;;;;;;;32.25;17.77;;;;;;;-0.81;100.00;100111.16;4878974;29;20134;-95
2023/12/02 01:45:56;;;;;;;63.35;20.05;;;;;;;-0.84;100.00;100108.69;4880195;29;20043;-95
2023/12/02 01:48:28;;;;;;;34.15;18.08;;;;;;;-0.83;100.00;100102.63;4880752;29;20128;-94
2023/12/02 01:50:54;;;;;;;128.55;16.52;;;;;;;-0.92;100.00;100107.34;4892928;29;20050;-95
2023/12/02 01:53:20;;;;;;;99.97;21.15;;;;;;;-0.92;100.00;100109.09;4876398;29;20900;-94
2023/12/02 01:55:46;;;;;;;134.02;24.65;;;;;;;-1.03;100.00;100105.31;4880749;29;20499;-95
2023/12/02 01:58:12;;;;;;;58.22;22.50;;;;;;;-1.00;100.00;100114.69;4896296;29;20040;-95
2023/12/02 02:00:38;;;;;;;28.42;16.77;;;;;;;-1.01;100.00;100116.47;4852446;29;20041;-95
2023/12/02 02:03:04;;;;;;;27.40;17.92;;;;;;;-1.02;100.00;100111.34;4878362;29;20036;-94
2023/12/02 02:05:30;;;;;;;37.33;18.45;;;;;;;-1.03;100.00;100120.88;4863460;29;20605;-93
2023/12/02 02:07:55;;;;;;;30.05;17.75;;;;;;;-1.04;100.00;100115.75;4873366;29;20071;-95
2023/12/02 02:10:22;;;;;;;33.28;18.48;;;;;;;-1.02;100.00;100116.53;4864309;29;20047;-95
2023/12/02 02:12:47;;;;;;;28.75;16.42;;;;;;;-1.06;100.00;100120.19;4880100;29;20044;-94
2023/12/02 02:15:14;;;;;;;27.77;17.55;;;;;;;-1.07;100.00;100118.50;4877553;29;20460;-94
2023/12/02 02:17:40;;;;;;;31.42;19.73;;;;;;;-1.09;100.00;100118.59;4879439;29;20032;-95
2023/12/02 02:20:08;;;;;;;31.35;18.67;;;;;;;-1.07;100.00;100119.38;4874633;29;20662;-95
2023/12/02 02:22:34;;;;;;;25.75;14.90;;;;;;;-1.08;100.00;100117.66;4875624;29;20033;-96
2023/12/02 02:25:00;;;;;;;24.90;14.70;;;;;;;-1.08;100.00;100125.44;4867080;29;20033;-95
2023/12/02 02:27:26;;;;;;;25.30;14.07;;;;;;;-1.11;100.00;100128.19;4865994;29;20092;-96
2023/12/02 02:29:52;;;;;;;21.95;13.93;;;;;;;-1.10;100.00;100126.44;4884012;29;20040;-96
2023/12/02 02:32:17;;;;;;;23.40;13.45;;;;;;;-1.11;100.00;100125.59;4879577;29;20366;-96
2023/12/02 02:34:43;;;;;;;21.95;13.82;;;;;;;-1.15;100.00;100126.69;4861462;29;20044;-96
2023/12/02 02:37:09;;;;;;;21.92;13.63;;;;;;;-1.22;100.00;100131.31;4880862;29;20029;-95
2023/12/02 02:39:35;;;;;;;25.65;14.68;;;;;;;-1.27;100.00;100125.53;4881156;29;20078;-96
2023/12/02 02:42:11;;;;;;;20.92;14.13;;;;;;;-1.26;100.00;100128.03;4877853;29;20037;-95
2023/12/02 02:44:37;;;;;;;21.52;13.55;;;;;;;-1.31;100.00;100117.06;4888033;29;20037;-96
2023/12/02 02:47:04;;;;;;;19.98;12.93;;;;;;;-1.33;100.00;100120.63;4868320;29;20051;-96
2023/12/02 02:49:30;;;;;;;32.60;14.90;;;;;;;-1.35;100.00;100128.50;4875197;29;20041;-96
2023/12/02 02:51:56;;;;;;;26.90;13.90;;;;;;;-1.39;100.00;100116.59;4884267;29;20551;-96
2023/12/02 02:54:22;;;;;;;26.35;14.40;;;;;;;-1.48;100.00;100123.06;4866670;29;20181;-96
2023/12/02 02:56:47;;;;;;;44.22;14.07;;;;;;;-1.51;100.00;100121.47;4866386;29;20412;-96
2023/12/02 02:59:13;;;;;;;32.53;16.83;;;;;;;-1.48;100.00;100124.84;4874629;29;20040;-96
2023/12/02 03:01:42;;;;;;;33.42;17.63;;;;;;;-1.46;100.00;100116.06;4864069;29;20065;-96
2023/12/02 03:04:08;;;;;;;22.33;13.88;;;;;;;-1.51;100.00;100107.66;4879161;29;20037;-95
2023/12/02 03:06:34;;;;;;;31.42;17.30;;;;;;;-1.47;100.00;100123.91;4863053;29;20048;-94
2023/12/02 03:09:00;;;;;;;29.73;17.13;;;;;;;-1.45;100.00;100122.91;4866361;29;20398;-96
2023/12/02 03:11:26;;;;;;;30.00;16.48;;;;;;;-1.44;100.00;100121.16;4876571;29;20040;-96
2023/12/02 03:13:52;;;;;;;38.83;20.25;;;;;;;-1.43;100.00;100123.69;4875477;29;20047;-96
2023/12/02 03:16:18;;;;;;;41.60;19.00;;;;;;;-1.42;100.00;100119.34;4865768;29;20124;-96
2023/12/02 03:18:43;;;;;;;40.00;18.42;;;;;;;-1.42;100.00;100111.56;4895948;29;20045;-96
2023/12/02 03:21:09;;;;;;;27.38;14.60;;;;;;;-1.45;100.00;100102.16;4866061;29;20060;-96
2023/12/02 03:23:35;;;;;;;24.98;15.32;;;;;;;-1.37;100.00;100107.00;4867354;29;20092;-96
2023/12/02 03:26:01;;;;;;;30.77;15.23;;;;;;;-1.41;100.00;100108.06;4865859;29;20060;-96
2023/12/02 03:28:27;;;;;;;37.50;17.50;;;;;;;-1.37;100.00;100112.19;4896226;29;20448;-96
2023/12/02 03:30:53;;;;;;;30.67;16.25;;;;;;;-1.46;100.00;100108.28;4880148;29;20503;-96
2023/12/02 03:33:19;;;;;;;33.25;15.18;;;;;;;-1.50;100.00;100105.00;4866408;29;20040;-96
2023/12/02 03:35:44;;;;;;;30.75;14.93;;;;;;;-1.56;100.00;100105.28;4886896;29;20041;-96
2023/12/02 03:38:10;;;;;;;34.05;15.73;;;;;;;-1.56;100.00;100109.66;4895582;29;20045;-96
2023/12/02 03:40:39;;;;;;;38.58;18.20;;;;;;;-1.57;100.00;100114.00;4868966;29;20044;-96
2023/12/02 03:43:05;;;;;;;39.35;17.10;;;;;;;-1.64;100.00;100099.66;4875076;29;20044;-96
2023/12/02 03:45:31;;;;;;;35.42;18.10;;;;;;;-1.60;100.00;100106.38;4867563;29;20100;-96
2023/12/02 03:47:57;;;;;;;40.53;18.40;;;;;;;-1.58;100.00;100107.13;4877567;29;20412;-96
2023/12/02 03:50:23;;;;;;;37.67;16.98;;;;;;;-1.60;100.00;100105.50;4879502;29;20044;-96
2023/12/02 03:52:49;;;;;;;37.92;19.05;;;;;;;-1.60;100.00;100101.19;4873740;29;20037;-93
2023/12/02 03:55:15;;;;;;;42.53;19.50;;;;;;;-1.60;100.00;100101.19;4865704;29;20569;-93
2023/12/02 03:57:41;;;;;;;32.38;17.05;;;;;;;-1.63;100.00;100102.19;4868538;29;20037;-96
2023/12/02 04:00:13;;;;;;;28.40;15.32;;;;;;;-1.65;100.00;100093.63;4883613;29;20495;-96
2023/12/02 04:02:40;;;;;;;23.08;13.88;;;;;;;-1.58;100.00;100093.34;4885665;29;20080;-96
2023/12/02 04:05:08;;;;;;;22.13;12.95;;;;;;;-1.59;100.00;100086.47;4884888;29;20032;-96
2023/12/02 04:07:34;;;;;;;16.90;11.93;;;;;;;-1.59;100.00;100095.06;4873317;29;20112;-96
2023/12/02 04:10:02;;;;;;;18.08;11.68;;;;;;;-1.62;100.00;100082.25;4867626;29;20033;-94
2023/12/02 04:12:33;;;;;;;28.10;14.63;;;;;;;-1.62;100.00;100092.63;4881256;29;20056;-93
2023/12/02 04:15:00;;;;;;;31.27;16.23;;;;;;;-1.69;100.00;100093.84;4872750;29;20063;-96
2023/12/02 04:17:26;;;;;;;35.28;18.33;;;;;;;-1.71;100.00;100093.94;4870893;29;20052;-96
2023/12/02 04:19:52;;;;;;;35.40;17.55;;;;;;;-1.71;100.00;100093.06;4878338;29;20044;-96
2023/12/02 04:22:21;;;;;;;41.33;17.95;;;;;;;-1.71;100.00;100096.53;4879691;29;20040;-96
2023/12/02 04:24:47;;;;;;;38.05;17.90;;;;;;;-1.85;100.00;100085.97;4873818;29;20124;-96
2023/12/02 04:27:14;;;;;;;27.75;15.23;;;;;;;-1.88;100.00;100082.59;4892520;29;20036;-96
2023/12/02 04:29:42;;;;;;;31.33;16.60;;;;;;;-1.90;100.00;100081.00;4893820;29;20052;-96
2023/12/02 04:32:09;;;;;;;37.58;19.52;;;;;;;-1.91;100.00;100087.13;4893752;29;20055;-96
2023/12/02 04:34:37;;;;;;;33.95;17.13;;;;;;;-1.90;100.00;100096.56;4878016;29;20521;-94
2023/12/02 04:37:03;;;;;;;20.15;12.52;;;;;;;-1.90;100.00;100087.03;4866933;29;20056;-93
2023/12/02 04:39:29;;;;;;;17.73;12.38;;;;;;;-1.90;100.00;100088.78;4877944;29;20040;-96
2023/12/02 04:41:56;;;;;;;18.70;12.13;;;;;;;-1.93;100.00;100091.53;4897274;29;20033;-96
2023/12/02 04:44:23;;;;;;;21.00;12.52;;;;;;;-2.04;100.00;100082.47;4884797;29;20040;-96
2023/12/02 04:46:50;;;;;;;24.25;14.35;;;;;;;-2.10;100.00;100072.41;4875036;29;20036;-96
2023/12/02 04:49:16;;;;;;;24.95;13.60;;;;;;;-2.10;100.00;100092.31;4894190;29;20092;-96
2023/12/02 04:51:44;;;;;;;27.75;15.57;;;;;;;-2.12;100.00;100089.78;4895567;29;20036;-96
2023/12/02 04:54:11;;;;;;;30.50;15.02;;;;;;;-2.13;100.00;100082.91;4884779;29;20049;-96
2023/12/02 04:56:40;;;;;;;34.10;15.75;;;;;;;-2.16;100.00;100096.88;4902901;29;20116;-96
2023/12/02 04:59:09;;;;;;;45.85;23.90;;;;;;;-2.17;100.00;100099.53;4907700;29;20142;-96
2023/12/02 05:01:38;;;;;;;33.55;17.60;;;;;;;-2.17;100.00;100090.00;4887081;29;20044;-96
2023/12/02 05:04:09;;;;;;;31.48;17.30;;;;;;;-2.15;100.00;100095.94;4892196;29;20045;-96
2023/12/02 05:06:36;;;;;;;30.65;15.35;;;;;;;-2.16;100.00;100091.69;4894515;29;20147;-96
2023/12/02 05:09:06;;;;;;;30.38;15.90;;;;;;;-2.15;100.00;100095.94;4889413;29;20009;-96
2023/12/02 05:11:33;;;;;;;67.00;31.10;;;;;;;-2.18;100.00;100101.25;4878304;29;20045;-96
2023/12/02 05:13:59;;;;;;;84.15;40.95;;;;;;;-2.20;100.00;100094.50;4892739;29;20112;-96
2023/12/02 05:16:29;;;;;;;34.75;18.85;;;;;;;-2.31;100.00;100103.56;4892812;29;20070;-96
2023/12/02 05:18:59;;;;;;;35.00;18.92;;;;;;;-2.29;100.00;100093.13;4894909;29;20064;-96
2023/12/02 05:21:25;;;;;;;35.22;18.38;;;;;;;-2.30;100.00;100097.50;4899198;29;20041;-96
2023/12/02 05:23:54;;;;;;;33.55;19.02;;;;;;;-2.32;100.00;100095.88;4892872;29;20037;-96
2023/12/02 05:26:23;;;;;;;46.20;21.13;;;;;;;-2.35;100.00;100094.28;4893106;29;20052;-96
2023/12/02 05:28:52;;;;;;;40.50;20.95;;;;;;;-2.34;100.00;100102.88;4894813;29;20036;-96
2023/12/02 05:31:19;;;;;;;35.28;17.17;;;;;;;-2.34;100.00;100097.72;4901536;29;20075;-96
2023/12/02 05:33:50;;;;;;;34.88;16.35;;;;;;;-2.33;100.00;100094.19;4896345;29;20048;-96
2023/12/02 05:36:20;;;;;;;26.50;15.20;;;;;;;-2.37;100.00;100091.75;4865463;29;20116;-96
2023/12/02 05:38:58;;;;;;;31.15;15.50;;;;;;;-2.33;100.00;100089.03;4914642;29;20029;-96
2023/12/02 05:41:40;;;;;;;25.70;14.70;;;;;;;-2.39;100.00;100088.38;4882192;29;20064;-96
2023/12/02 05:44:25;;;;;;;29.63;17.87;;;;;;;-2.38;100.00;100081.47;5064926;23;20732;-94
2023/12/02 05:47:19;;;;;;;;;;;;;;;;;;;;;
2023/12/02 05:49:58;;;;;;;28.30;17.63;;;;;;;-2.34;100.00;100079.59;4999832;23;20066;-92
2023/12/02 05:56:54;;;;;;;35.28;16.38;;;;;;;-2.25;100.00;100089.53;4901861;29;20151;-93
2023/12/02 05:59:34;;;;;;;31.90;17.10;;;;;;;-2.26;100.00;100082.63;4868365;29;20123;-92
2023/12/02 06:02:19;;;;;;;32.50;16.40;;;;;;;-2.27;100.00;100081.81;4884446;29;20045;-92
2023/12/02 09:45:47;;;;;;;29.38;15.77;;;;;;;-1.87;100.00;100091.22;4869821;29;20049;-92
2023/12/02 09:57:26;;;;;;;;;;;;;;;;;;;;;
2023/12/02 10:00:54;;;;;;;37.40;18.40;;;;;;;-1.23;100.00;100092.50;4761969;30;20059;-94
2023/12/02 10:12:22;;;;;;;34.75;20.23;;;;;;;-0.74;100.00;100107.31;4703311;29;20039;-95
2023/12/02 10:16:24;;;;;;;38.00;19.42;;;;;;;-0.52;100.00;100103.59;4814094;29;20098;-96
2023/12/02 10:24:10;;;;;;;32.30;18.50;;;;;;;-0.23;100.00;100102.97;4821768;29;20142;-95
2023/12/02 10:36:13;;;;;;;;;;;;;;;;;;;;;
2023/12/02 10:39:55;;;;;;;27.15;15.40;;;;;;;0.24;100.00;100099.50;4844723;29;20132;-95
2023/12/02 10:43:56;;;;;;;;;;;;;;;;;;;;;
2023/12/02 10:47:28;;;;;;;16.98;10.57;;;;;;;0.67;100.00;100089.38;4844964;29;20060;-94
2023/12/02 10:51:38;;;;;;;;;;;;;;;;;;;;;
2023/12/02 11:04:54;;;;;;;;;;;;;;;;;;;;;
2023/12/02 11:17:11;;;;;;;;;;;;;;;;;;;;;
2023/12/02 11:25:35;;;;;;;10.90;6.88;;;;;;;2.37;100.00;100075.59;4726524;29;20062;-93
2023/12/02 11:29:04;;;;;;;13.02;7.97;;;;;;;2.50;100.00;100063.41;4764056;29;20043;-93
2023/12/02 11:32:42;;;;;;;15.80;9.88;;;;;;;2.65;100.00;100065.94;4843117;29;20052;-93
2023/12/02 11:36:19;;;;;;;10.55;7.28;;;;;;;2.73;100.00;100063.66;4886315;29;20033;-92
2023/12/02 11:40:00;;;;;;;;;;;;;;;;;;;;;
2023/12/02 11:43:03;;;;;;;17.08;10.70;;;;;;;2.75;100.00;100048.75;4877613;29;20588;-92
2023/12/02 12:05:55;;;;;;;10.93;5.45;;;;;;;2.88;100.00;100033.09;4844041;29;20099;-93
2023/12/02 12:10:00;;;;;;;11.67;5.87;;;;;;;2.90;100.00;100040.84;4829439;29;20077;-93
2023/12/02 12:13:36;;;;;;;6.82;4.88;;;;;;;2.88;100.00;100024.44;4864153;29;20036;-92
2023/12/02 12:25:07;;;;;;;7.63;4.57;;;;;;;2.98;100.00;100021.06;4894590;29;20037;-93
2023/12/02 12:28:55;;;;;;;;;;;;;;;;;;;;;
2023/12/02 13:53:16;;;;;;;7.35;5.75;;;;;;;3.83;100.00;99983.84;4775030;30;20132;-95
2023/12/02 14:04:04;;;;;;;10.15;8.18;;;;;;;3.85;100.00;99958.44;4805532;29;20106;-84
2023/12/02 14:06:45;;;;;;;14.25;8.27;;;;;;;3.86;100.00;99957.50;4881266;29;20105;-84
2023/12/02 14:09:22;;;;;;;14.40;8.88;;;;;;;3.86;100.00;99952.25;4881913;29;20049;-84
2023/12/02 14:12:07;;;;;;;11.98;8.13;;;;;;;3.81;100.00;99951.75;4897180;29;20036;-88
2023/12/02 14:14:45;;;;;;;15.23;7.80;;;;;;;3.87;100.00;99953.91;4993534;23;21010;-86
2023/12/02 14:18:02;;;;;;;14.95;9.18;;;;;;;3.88;100.00;99952.16;4917620;23;20052;-96
2023/12/02 14:20:36;;;;;;;;;;;;;;;3.81;100.00;99949.13;4903233;29;20036;-96
2023/12/02 14:23:05;;;;;;;17.75;11.07;;;;;;;3.84;100.00;99951.53;4898919;24;19934;-95
2023/12/02 14:26:05;;;;;;;13.98;11.68;;;;;;;3.85;100.00;99948.78;4902559;29;20104;-96
2023/12/02 14:28:58;;;;;;;7.63;5.70;;;;;;;3.79;100.00;99945.81;4863182;29;20073;-96
2023/12/02 14:31:46;;;;;;;8.05;4.93;;;;;;;3.81;100.00;99942.13;4870378;29;20037;-96
2023/12/02 14:38:09;;;;;;;5.88;4.22;;;;;;;3.77;100.00;99942.47;4879791;29;20041;-96
2023/12/02 14:41:03;;;;;;;5.70;4.70;;;;;;;3.73;100.00;99936.63;4853807;29;20045;-96
2023/12/02 14:44:08;;;;;;;7.68;5.70;;;;;;;3.73;100.00;99939.25;4879918;29;20029;-96
2023/12/02 14:46:34;;;;;;;7.10;4.88;;;;;;;3.66;100.00;99936.28;4861079;29;20123;-96
2023/12/02 14:49:00;;;;;;;8.25;4.97;;;;;;;3.66;100.00;99928.44;4887640;29;20619;-96
2023/12/02 14:51:34;;;;;;;6.70;4.82;;;;;;;3.67;100.00;99927.47;4884435;29;20045;-96
2023/12/02 14:54:03;;;;;;;6.82;4.97;;;;;;;3.68;100.00;99930.94;4875776;29;20059;-96
2023/12/02 15:00:23;;;;;;;14.32;9.70;;;;;;;3.60;100.00;99939.31;4880286;29;20071;-96
2023/12/02 15:02:53;;;;;;;13.65;7.65;;;;;;;3.58;100.00;99934.19;4880977;29;20045;-94
2023/12/02 15:05:33;;;;;;;13.27;8.50;;;;;;;3.55;100.00;99942.25;4862332;29;20045;-96
2023/12/02 15:08:04;;;;;;;13.57;9.20;;;;;;;3.46;100.00;99930.69;4904435;29;20045;-96
2023/12/02 15:10:33;;;;;;;14.82;10.13;;;;;;;3.45;100.00;99936.03;4861218;29;20040;-96
2023/12/02 15:12:59;;;;;;;18.75;10.30;;;;;;;3.44;100.00;99937.81;4868780;29;20045;-96
2023/12/02 15:15:38;;;;;;;13.43;9.93;;;;;;;3.46;100.00;99941.16;4867501;29;20047;-95
2023/12/02 15:18:46;;;;;;;13.15;8.73;;;;;;;3.46;100.00;99941.16;4847320;29;20049;-96
2023/12/02 15:22:09;;;;;;;14.23;9.13;;;;;;;3.45;100.00;99938.66;4874814;29;20132;-96
2023/12/02 15:24:36;;;;;;;15.68;9.50;;;;;;;3.38;100.00;99937.44;4857938;29;20045;-96
2023/12/02 15:27:30;;;;;;;17.15;9.82;;;;;;;3.44;100.00;99932.56;4861500;29;20049;-96
2023/12/02 15:29:59;;;;;;;15.60;9.02;;;;;;;3.37;100.00;99926.13;4886984;29;20171;-96
2023/12/02 16:01:15;;;;;;;;;;;;;;;;;;;;;
2023/12/02 16:04:34;;;;;;;22.15;13.40;;;;;;;3.13;100.00;99924.34;4897061;29;20130;-91
2023/12/02 16:37:18;;;;;;;18.67;12.85;;;;;;;2.38;100.00;99929.44;4801227;29;20050;-94
2023/12/02 16:45:04;;;;;;;44.95;30.13;;;;;;;2.34;100.00;99935.81;4781934;29;20054;-94
2023/12/02 17:14:32;;;;;;;;;;;;;;;;;;;;;
2023/12/02 17:18:28;;;;;;;28.08;17.23;;;;;;;1.67;100.00;99929.75;4840258;29;20045;-95
2023/12/02 17:38:25;;;;;;;51.65;32.75;;;;;;;1.42;100.00;99915.69;4841496;29;20074;-93
2023/12/02 17:41:52;;;;;;;106.65;59.88;;;;;;;1.46;100.00;99923.22;4844216;29;20061;-93
2023/12/02 18:00:21;;;;;;;286.65;147.75;;;;;;;1.21;100.00;99929.97;4812523;29;20048;-92
2023/12/02 18:03:01;;;;;;;119.82;68.70;;;;;;;1.14;100.00;99933.03;4837416;29;20591;-93
2023/12/02 18:10:25;;;;;;;80.05;44.22;;;;;;;1.08;100.00;99926.47;4854686;29;20039;-95
2023/12/02 18:17:55;;;;;;;218.88;126.57;;;;;;;1.17;100.00;99919.84;4857050;29;20146;-95
2023/12/02 18:51:44;;;;;;;227.48;137.57;;;;;;;0.70;100.00;99922.69;4902704;29;20044;-94
2023/12/02 18:54:55;;;;;;;;;;;;;;;;;;;;;
2023/12/02 19:01:53;;;;;;;172.27;99.25;;;;;;;0.54;100.00;99922.78;4888128;29;20135;-96
2023/12/02 19:04:45;;;;;;;112.72;65.25;;;;;;;0.46;100.00;99920.66;4890964;29;20084;-96
2023/12/02 19:07:13;;;;;;;111.60;64.57;;;;;;;0.38;100.00;99928.06;4899792;29;20103;-96
2023/12/02 19:14:38;;;;;;;53.00;32.20;;;;;;;0.23;100.00;99933.22;4921355;29;20047;-94
2023/12/02 19:32:32;;;;;;;109.22;55.95;;;;;;;0.19;100.00;99923.97;4909789;29;20503;-95
2023/12/02 19:34:58;;;;;;;104.97;57.38;;;;;;;0.21;100.00;99925.53;4880558;29;20052;-95
2023/12/02 19:37:24;;;;;;;137.15;83.43;;;;;;;0.26;100.00;99922.66;4876052;29;20032;-96
2023/12/02 19:39:50;;;;;;;137.80;76.85;;;;;;;0.30;100.00;99931.97;4879133;29;20123;-95
2023/12/02 19:42:16;;;;;;;157.63;86.80;;;;;;;0.29;100.00;99917.28;4894573;29;20035;-95
2023/12/02 19:44:43;;;;;;;207.02;115.40;;;;;;;0.36;100.00;99925.56;4874318;29;20040;-94
2023/12/02 19:47:09;;;;;;;158.40;89.97;;;;;;;0.38;100.00;99918.50;4884913;29;20168;-95
2023/12/02 19:49:35;;;;;;;111.97;61.75;;;;;;;0.32;100.00;99906.69;4876432;29;20461;-94
2023/12/02 19:52:02;;;;;;;104.85;64.47;;;;;;;0.39;100.00;99917.56;4864457;29;20060;-94
2023/12/02 19:54:28;;;;;;;234.75;128.82;;;;;;;0.32;100.00;99913.69;4893956;29;20138;-94
2023/12/02 19:56:54;;;;;;;156.00;84.45;;;;;;;0.23;100.00;99923.69;4886357;29;20032;-95
2023/12/02 19:59:20;;;;;;;100.82;56.05;;;;;;;0.08;100.00;99922.00;4894279;29;20043;-94
2023/12/02 20:01:46;;;;;;;127.07;65.28;;;;;;;-0.04;100.00;99915.72;4869018;29;20497;-95
2023/12/02 20:04:12;;;;;;;111.80;59.17;;;;;;;-0.10;100.00;99911.72;4885130;29;20036;-94
2023/12/02 20:06:39;;;;;;;115.72;61.53;;;;;;;-0.06;100.00;99912.38;4892225;29;20068;-94
2023/12/02 20:09:05;;;;;;;114.35;67.15;;;;;;;-0.11;100.00;99912.63;4867717;29;20402;-94
2023/12/02 20:11:31;;;;;;;116.25;66.25;;;;;;;-0.18;100.00;99904.38;4866627;29;20040;-94
2023/12/02 20:13:56;;;;;;;164.15;64.45;;;;;;;-0.32;100.00;99905.16;4860942;29;20036;-94
2023/12/02 20:16:22;;;;;;;116.55;59.05;;;;;;;-0.39;100.00;99914.22;4867406;29;20491;-95
2023/12/02 20:18:48;;;;;;;116.63;61.72;;;;;;;-0.41;100.00;99910.88;4899086;29;20449;-94
2023/12/02 20:21:14;;;;;;;120.40;61.20;;;;;;;-0.40;100.00;99915.16;4877744;29;20036;-94
2023/12/02 20:23:39;;;;;;;131.18;61.47;;;;;;;-0.35;100.00;99912.31;4890137;29;20035;-94
2023/12/02 20:26:06;;;;;;;142.90;74.60;;;;;;;-0.38;100.00;99898.56;4862426;29;20036;-94
2023/12/02 20:28:32;;;;;;;150.52;85.65;;;;;;;-0.31;100.00;99909.44;4888840;29;20040;-94
2023/12/02 20:30:58;;;;;;;127.93;78.20;;;;;;;-0.26;100.00;99906.56;4890283;29;20112;-94
2023/12/02 20:33:24;;;;;;;121.93;70.70;;;;;;;-0.24;100.00;99898.69;4893026;29;20107;-94
2023/12/02 20:35:50;;;;;;;106.30;63.50;;;;;;;-0.21;100.00;99893.31;4892339;29;20482;-94
2023/12/02 20:38:15;;;;;;;116.88;70.53;;;;;;;-0.19;100.00;99894.09;4871014;29;20032;-94
2023/12/02 20:40:42;;;;;;;129.65;74.70;;;;;;;-0.26;100.00;99894.44;4857539;29;20052;-93
2023/12/02 20:43:09;;;;;;;145.32;79.25;;;;;;;-0.45;100.00;99886.00;4896210;29;20044;-94
2023/12/02 20:45:36;;;;;;;117.10;67.03;;;;;;;-0.59;100.00;99899.78;4861490;29;20032;-94
2023/12/02 20:48:02;;;;;;;106.05;62.75;;;;;;;-0.68;100.00;99895.91;4877692;29;20589;-94
2023/12/02 20:50:29;;;;;;;105.75;56.50;;;;;;;-0.73;100.00;99885.78;4896652;29;20039;-93
2023/12/02 20:52:54;;;;;;;107.95;60.40;;;;;;;-0.69;100.00;99886.47;4905516;29;20032;-94
2023/12/02 20:55:20;;;;;;;113.07;64.60;;;;;;;-0.68;100.00;99893.31;4882523;29;20041;-94
2023/12/02 20:57:46;;;;;;;143.43;76.60;;;;;;;-0.68;100.00;99891.56;4888300;29;20048;-93
2023/12/02 21:00:15;;;;;;;197.48;104.88;;;;;;;-0.65;100.00;99899.19;4889889;29;20062;-93
2023/12/02 21:02:46;;;;;;;124.05;67.82;;;;;;;-0.66;100.00;99894.06;4886313;29;20379;-94
2023/12/02 21:05:12;;;;;;;231.55;115.00;;;;;;;-0.73;100.00;99888.38;4881012;29;20041;-94
2023/12/02 21:07:38;;;;;;;257.67;123.28;;;;;;;-0.75;100.00;99893.66;4878722;29;20056;-94
2023/12/02 21:10:05;;;;;;;290.00;147.30;;;;;;;-0.81;100.00;99901.78;4894730;29;20044;-94
2023/12/02 21:12:31;;;;;;;152.00;80.13;;;;;;;-0.90;100.00;99902.28;4882408;29;20058;-95
2023/12/02 21:14:57;;;;;;;165.48;80.15;;;;;;;-0.99;100.00;99901.06;4884672;29;20078;-94
2023/12/02 21:17:23;;;;;;;134.35;61.45;;;;;;;-1.11;100.00;99912.91;4896796;29;20064;-93
2023/12/02 21:19:49;;;;;;;264.17;106.88;;;;;;;-1.25;100.00;99909.31;4874563;29;20100;-96
2023/12/02 21:22:15;;;;;;;336.48;125.93;;;;;;;-1.41;100.00;99909.28;4890480;29;21265;-95
2023/12/02 21:24:51;;;;;;;218.43;81.18;;;;;;;-1.46;100.00;99921.63;4890932;29;20475;-94
2023/12/02 21:27:17;;;;;;;176.02;60.70;;;;;;;-1.43;100.00;99928.41;4887644;29;20044;-93
2023/12/02 21:29:43;;;;;;;199.40;74.20;;;;;;;-1.43;100.00;99926.66;4878855;29;20087;-93
2023/12/02 21:32:25;;;;;;;185.20;53.00;;;;;;;-1.47;100.00;99912.19;4896069;29;20060;-93
2023/12/02 21:34:59;;;;;;;105.00;34.95;;;;;;;-1.56;100.00;99920.44;4865272;29;20056;-92
2023/12/02 21:37:25;;;;;;;139.75;38.22;;;;;;;-1.70;100.00;99916.78;4870976;29;20086;-93
2023/12/02 21:39:56;;;;;;;103.70;37.78;;;;;;;-1.74;100.00;99915.28;4878996;29;20494;-93
2023/12/02 21:42:23;;;;;;;126.82;36.95;;;;;;;-1.87;100.00;99913.31;4876992;29;20067;-93
2023/12/02 21:44:49;;;;;;;127.07;37.78;;;;;;;-1.90;100.00;99907.44;4895957;29;20040;-93
2023/12/02 21:47:15;;;;;;;120.75;43.25;;;;;;;-1.87;100.00;99918.50;4896644;29;20075;-93
2023/12/02 21:49:42;;;;;;;254.20;46.00;;;;;;;-1.78;100.00;99913.75;4885680;29;20103;-92
2023/12/02 21:52:10;;;;;;;128.32;41.22;;;;;;;-1.74;100.00;99917.88;4878253;29;20050;-92
2023/12/02 21:54:36;;;;;;;190.30;44.20;;;;;;;-1.78;100.00;99916.34;4884512;29;20040;-92